Time;durP1;ratioP1;P1;durP2;ratioP2;P2;SDS_P1;SDS_P2;PMS_P1;PMS_P2;Temp;Humidity;BMP_temperature;BMP_pressure;BME280_temperature;BME280_humidity;BME280_pressure;Samples;Min_cycle;Max_cycle;Signal;HPM_P1;HPM_P2
2022/06/26 00:02:28;;;;;;;5.03;2.15;;;;;;;24.28;50.29;100478.44;4924946;29;20039;-82
2022/06/26 00:05:14;;;;;;;9.98;2.47;;;;;;;24.32;51.90;100482.00;4893855;29;20417;-81
2022/06/26 00:07:59;;;;;;;6.50;1.98;;;;;;;24.42;50.46;100483.06;4892846;29;20056;-81
2022/06/26 00:10:46;;;;;;;8.23;2.85;;;;;;;24.47;51.87;100488.16;4891481;29;20052;-81
2022/06/26 00:13:31;;;;;;;10.40;2.25;;;;;;;24.28;50.71;100481.22;4920811;29;20051;-81
2022/06/26 00:16:16;;;;;;;6.03;2.80;;;;;;;23.97;51.14;100488.69;4894777;29;20055;-82
2022/06/26 00:19:01;;;;;;;2.53;1.50;;;;;;;24.06;52.30;100490.97;4927966;29;20685;-82
2022/06/26 00:21:46;;;;;;;5.40;2.28;;;;;;;24.14;52.43;100479.34;4894444;29;20048;-82
2022/06/26 00:24:33;;;;;;;4.15;1.63;;;;;;;24.28;52.11;100484.00;4891311;29;20051;-81
2022/06/26 00:27:17;;;;;;;8.05;2.33;;;;;;;24.31;51.56;100493.50;4896814;29;20060;-81
2022/06/26 00:30:03;;;;;;;5.50;1.92;;;;;;;24.14;51.15;100487.69;4891386;29;20056;-81
2022/06/26 00:32:48;;;;;;;7.65;2.00;;;;;;;23.99;51.86;100493.81;4893358;29;20051;-80
2022/06/26 00:35:32;;;;;;;5.50;2.03;;;;;;;23.70;51.83;100501.63;4892425;29;20051;-81
2022/06/26 00:38:17;;;;;;;6.20;1.90;;;;;;;23.74;52.69;100492.06;4923717;29;20055;-80
2022/06/26 00:41:02;;;;;;;6.43;2.30;;;;;;;23.78;51.65;100492.81;4892676;29;20517;-81
2022/06/26 00:43:47;;;;;;;6.53;1.98;;;;;;;23.87;51.85;100495.88;4892803;29;20060;-81
2022/06/26 00:46:33;;;;;;;7.45;2.20;;;;;;;23.90;51.64;100496.28;4892988;29;20051;-82
2022/06/26 00:49:18;;;;;;;4.05;2.00;;;;;;;23.98;51.56;100493.00;4919873;29;20052;-82
2022/06/26 00:52:04;;;;;;;3.10;1.60;;;;;;;23.93;52.05;100501.00;4921495;29;20048;-81
2022/06/26 00:54:50;;;;;;;6.40;1.98;;;;;;;24.00;51.75;100501.75;4894991;29;20059;-80
2022/06/26 00:57:35;;;;;;;6.90;1.83;;;;;;;23.86;52.23;100497.13;4918902;29;20043;-81
2022/06/26 01:00:20;;;;;;;9.93;1.98;;;;;;;24.00;51.55;100509.28;4890432;29;20055;-80
2022/06/26 01:03:05;;;;;;;7.50;1.95;;;;;;;24.06;51.46;100502.88;4921997;29;20048;-81
2022/06/26 01:05:50;;;;;;;4.63;2.08;;;;;;;24.13;51.07;100502.00;4891890;29;20064;-81
2022/06/26 01:08:36;;;;;;;5.95;2.85;;;;;;;24.11;51.09;100509.97;4916990;29;20048;-81
2022/06/26 01:11:21;;;;;;;7.38;1.70;;;;;;;24.17;51.33;100511.94;4890742;29;20694;-81
2022/06/26 01:14:07;;;;;;;5.03;1.92;;;;;;;24.20;51.20;100510.31;4892338;29;20267;-82
2022/06/26 01:16:53;;;;;;;3.35;1.67;;;;;;;24.13;51.86;100511.13;4892191;29;20047;-81
2022/06/26 01:19:38;;;;;;;3.30;1.85;;;;;;;24.20;52.22;100513.88;4889948;29;20047;-81
2022/06/26 01:22:27;;;;;;;7.25;1.65;;;;;;;24.29;52.39;100507.81;4922073;29;20122;-80
2022/06/26 01:25:11;;;;;;;8.85;2.28;;;;;;;24.26;52.24;100506.66;4890577;29;20056;-80
2022/06/26 01:27:56;;;;;;;4.88;1.90;;;;;;;24.26;51.86;100500.31;4889905;29;20047;-81
2022/06/26 01:30:42;;;;;;;4.38;2.58;;;;;;;24.27;52.07;100499.91;4888533;29;20064;-80
2022/06/26 01:33:27;;;;;;;7.13;2.03;;;;;;;24.27;52.03;100507.47;4918044;29;20130;-80
2022/06/26 01:36:12;;;;;;;7.40;1.83;;;;;;;24.29;51.72;100499.47;4917755;29;20048;-80
2022/06/26 01:38:59;;;;;;;6.40;1.70;;;;;;;24.13;52.13;100510.31;4889923;29;20055;-79
2022/06/26 01:41:43;;;;;;;7.22;1.92;;;;;;;23.97;50.87;100504.56;4890811;29;20044;-80
2022/06/26 01:44:30;;;;;;;9.73;2.17;;;;;;;23.93;51.62;100504.56;4890238;29;20055;-81
2022/06/26 01:47:15;;;;;;;5.65;1.63;;;;;;;23.79;52.17;100501.94;4889507;29;20588;-81
2022/06/26 01:50:00;;;;;;;15.65;2.55;;;;;;;23.43;52.11;100509.72;4914870;29;20528;-81
2022/06/26 01:52:45;;;;;;;5.63;2.15;;;;;;;23.62;52.39;100502.88;4896831;29;20056;-81
2022/06/26 01:55:31;;;;;;;6.68;1.95;;;;;;;23.21;53.91;100509.06;4878671;29;1182267;-81
2022/06/26 01:58:18;;;;;;;8.57;2.38;;;;;;;23.33;53.20;100513.34;4919864;29;20053;-81
2022/06/26 02:01:05;;;;;;;5.10;2.05;;;;;;;23.15;53.37;100515.47;4896088;29;20052;-81
2022/06/26 02:03:50;;;;;;;5.22;1.95;;;;;;;23.30;53.59;100517.75;4919464;29;20055;-81
2022/06/26 02:06:35;;;;;;;2.35;1.38;;;;;;;23.38;53.00;100512.91;4891231;29;20059;-81
2022/06/26 02:15:39;;;;;;;4.82;1.90;;;;;;;23.57;52.03;100515.19;4922472;29;20043;-81
2022/06/26 02:18:25;;;;;;;7.95;1.98;;;;;;;23.67;51.63;100514.31;4926321;29;20060;-81
2022/06/26 02:21:13;;;;;;;1.92;1.23;;;;;;;23.76;51.64;100506.31;4894938;29;20044;-81
2022/06/26 02:23:59;;;;;;;3.75;1.88;;;;;;;23.88;51.58;100508.59;4894846;29;20047;-81
2022/06/26 02:26:44;;;;;;;6.50;2.10;;;;;;;23.84;52.06;100507.03;4898339;29;20067;-81
2022/06/26 02:29:30;;;;;;;2.55;1.50;;;;;;;23.72;52.57;100504.78;4893706;29;20418;-81
2022/06/26 02:32:15;;;;;;;4.40;1.58;;;;;;;23.74;52.28;100514.25;4894691;29;20410;-81
2022/06/26 02:35:00;;;;;;;4.80;1.83;;;;;;;23.82;52.49;100506.69;4888303;29;20537;-80
2022/06/26 02:37:45;;;;;;;4.15;1.80;;;;;;;23.91;51.80;100511.75;4898756;29;20052;-81
2022/06/26 02:40:31;;;;;;;;;;;;;;;24.02;51.08;100518.00;4885434;29;20418;-81
2022/06/26 02:43:18;;;;;;;5.43;1.83;;;;;;;23.95;51.44;100513.28;4884659;29;19920;-81
2022/06/26 02:46:03;;;;;;;5.50;1.67;;;;;;;23.83;52.21;100516.56;4884562;29;20122;-81
2022/06/26 02:48:48;;;;;;;3.63;2.10;;;;;;;23.81;52.45;100519.78;4884511;29;20052;-81
2022/06/26 02:51:34;;;;;;;5.15;2.53;;;;;;;23.86;52.08;100527.66;4887104;29;20052;-82
2022/06/26 02:54:19;;;;;;;6.10;2.42;;;;;;;23.76;52.85;100528.53;4900669;29;20056;-82
2022/06/26 02:57:05;;;;;;;5.32;2.47;;;;;;;23.58;52.93;100530.66;4897084;29;20060;-81
2022/06/26 02:59:50;;;;;;;14.98;3.47;;;;;;;23.16;54.48;100530.91;4887838;29;20509;-81
2022/06/26 03:02:34;;;;;;;4.22;1.63;;;;;;;23.38;53.89;100535.91;4885427;29;20057;-81
2022/06/26 03:05:22;;;;;;;6.13;3.45;;;;;;;23.52;53.49;100540.59;4885004;29;20442;-81
2022/06/26 03:08:07;;;;;;;4.65;1.92;;;;;;;23.58;53.21;100544.53;4884856;29;20509;-81
2022/06/26 03:10:52;;;;;;;6.13;2.08;;;;;;;23.65;53.24;100555.59;4898634;29;20048;-81
2022/06/26 03:13:36;;;;;;;8.18;3.10;;;;;;;23.59;53.42;100556.44;4884752;29;20061;-81
2022/06/26 03:16:22;;;;;;;6.93;2.50;;;;;;;23.47;53.75;100559.72;4898076;29;20116;-81
2022/06/26 03:19:06;;;;;;;5.53;2.25;;;;;;;23.58;53.29;100568.72;4884457;29;20072;-81
2022/06/26 03:21:51;;;;;;;4.88;2.85;;;;;;;23.55;53.51;100567.56;4896775;29;20081;-81
2022/06/26 03:24:36;;;;;;;7.10;2.05;;;;;;;23.59;53.92;100571.09;4899199;29;20411;-81
2022/06/26 03:27:21;;;;;;;7.15;2.17;;;;;;;23.58;53.86;100574.28;4885142;29;20518;-81
2022/06/26 03:30:09;;;;;;;6.07;2.28;;;;;;;23.63;53.18;100582.19;4883683;29;20056;-81
2022/06/26 03:32:54;;;;;;;4.68;1.85;;;;;;;23.66;53.39;100584.16;4900364;29;20056;-81
2022/06/26 03:35:38;;;;;;;;;;;;;;;23.67;53.15;100586.50;4899318;29;20059;-81
2022/06/26 03:38:24;;;;;;;3.85;2.05;;;;;;;23.61;53.38;100585.38;4896460;29;19915;-81
2022/06/26 03:41:08;;;;;;;5.53;2.55;;;;;;;23.60;53.29;100586.56;4900111;29;20052;-81
2022/06/26 03:43:53;;;;;;;5.30;2.45;;;;;;;23.63;53.37;100585.75;4899097;29;20048;-81
2022/06/26 03:46:39;;;;;;;7.68;2.30;;;;;;;23.56;53.28;100593.34;4894866;29;20055;-81
2022/06/26 03:49:24;;;;;;;6.00;2.88;;;;;;;23.51;53.95;100599.31;4903341;29;20047;-81
2022/06/26 03:52:10;;;;;;;11.73;3.50;;;;;;;23.26;54.03;100605.75;4916471;29;20055;-81
2022/06/26 03:54:56;;;;;;;5.80;1.77;;;;;;;23.62;54.16;100603.59;4902286;29;20051;-81
2022/06/26 03:57:45;;;;;;;10.45;3.63;;;;;;;23.89;52.60;100609.38;4919161;29;20516;-81
2022/06/26 04:00:31;;;;;;;6.57;2.55;;;;;;;23.85;53.35;100609.41;4919853;29;20066;-80
2022/06/26 04:03:17;;;;;;;6.53;2.60;;;;;;;23.94;52.67;100608.13;4915420;29;20039;-81
2022/06/26 04:06:02;;;;;;;6.72;3.67;;;;;;;24.05;52.58;100622.75;4917617;29;20059;-81
2022/06/26 04:08:53;;;;;;;14.23;3.13;;;;;;;24.11;52.28;100623.91;4905040;29;20056;-82
2022/06/26 04:11:38;;;;;;;8.35;3.30;;;;;;;24.17;51.87;100620.31;4902847;29;20424;-82
2022/06/26 04:14:23;;;;;;;10.75;4.18;;;;;;;24.26;51.44;100634.50;4919096;29;20517;-83
2022/06/26 04:17:07;;;;;;;;;;;;;;;24.21;51.27;100625.81;4909001;29;20068;-83
2022/06/26 04:19:54;;;;;;;12.00;3.13;;;;;;;24.31;51.94;100626.94;4910283;29;19915;-82
2022/06/26 04:22:39;;;;;;;7.78;3.00;;;;;;;24.09;52.35;100634.63;4901803;29;20048;-81
2022/06/26 04:25:30;;;;;;;13.82;3.40;;;;;;;24.20;52.07;100638.13;4921509;29;20048;-82
2022/06/26 04:28:15;;;;;;;14.00;3.40;;;;;;;24.23;52.26;100631.75;4901763;29;20055;-81
2022/06/26 04:31:03;;;;;;;8.93;4.15;;;;;;;24.08;52.62;100650.50;4903878;29;20531;-82
2022/06/26 04:33:51;;;;;;;6.07;2.95;;;;;;;24.19;52.87;100642.09;4901668;29;20056;-82
2022/06/26 04:36:36;;;;;;;8.25;2.97;;;;;;;24.51;52.37;100644.63;4901577;29;20064;-82
2022/06/26 04:39:21;;;;;;;10.90;3.60;;;;;;;24.70;51.94;100642.03;4901420;29;20056;-82
2022/06/26 04:42:08;;;;;;;8.05;3.78;;;;;;;25.01;51.26;100637.34;4901770;29;20056;-82
2022/06/26 04:44:57;;;;;;;8.52;3.30;;;;;;;24.98;51.70;100648.53;4901441;29;20054;-81
2022/06/26 04:47:41;;;;;;;8.10;3.45;;;;;;;24.94;51.87;100653.34;4899491;29;20051;-81
2022/06/26 04:50:30;;;;;;;7.18;3.35;;;;;;;24.91;52.14;100654.16;4897106;29;20044;-82
2022/06/26 04:53:16;;;;;;;17.10;4.80;;;;;;;25.02;51.71;100660.41;4914670;29;20051;-82
2022/06/26 04:56:00;;;;;;;6.35;4.22;;;;;;;25.02;51.84;100657.63;4947549;23;20063;-81
2022/06/26 04:58:53;;;;;;;6.72;3.35;;;;;;;24.99;51.74;100664.78;4958009;28;20050;-81
2022/06/26 05:01:40;;;;;;;16.17;5.00;;;;;;;24.99;51.81;100653.66;4957011;28;20042;-82
2022/06/26 05:04:34;;;;;;;13.27;4.53;;;;;;;25.01;51.94;100664.38;4955450;28;20047;-81
2022/06/26 05:07:38;;;;;;;17.02;4.65;;;;;;;25.19;51.36;100666.97;4935021;29;20412;-79
2022/06/26 05:10:23;;;;;;;22.40;3.85;;;;;;;25.26;51.47;100672.44;4936093;29;20409;-81
2022/06/26 05:13:11;;;;;;;12.90;3.50;;;;;;;25.31;51.34;100666.41;4939069;29;20520;-81
2022/06/26 05:16:18;;;;;;;10.32;4.95;;;;;;;25.43;50.62;100666.66;4938707;29;20044;-81
2022/06/26 05:19:04;;;;;;;13.40;4.40;;;;;;;25.43;51.18;100683.38;4942194;29;20071;-81
2022/06/26 05:21:52;;;;;;;19.08;4.80;;;;;;;25.45;51.24;100678.16;4935167;29;20043;-81
2022/06/26 05:24:39;;;;;;;15.45;3.97;;;;;;;25.45;50.82;100682.94;4929005;29;20047;-82
2022/06/26 05:27:24;;;;;;;15.45;4.68;;;;;;;25.46;50.90;100681.72;4933147;29;20050;-81
2022/06/26 05:30:09;;;;;;;11.77;3.60;;;;;;;25.62;50.27;100683.94;4932120;29;20062;-81
2022/06/26 05:32:58;;;;;;;14.27;5.10;;;;;;;25.65;50.01;100683.88;4938290;29;20043;-81
2022/06/26 05:35:44;;;;;;;17.00;4.03;;;;;;;25.72;50.17;100694.16;4939821;29;20051;-82
2022/06/26 05:38:29;;;;;;;17.17;4.32;;;;;;;25.79;49.90;100688.50;4939181;29;20054;-81
2022/06/26 05:41:14;;;;;;;14.07;3.75;;;;;;;25.88;49.59;100694.34;4938886;29;20054;-82
2022/06/26 05:43:59;;;;;;;13.55;4.03;;;;;;;25.90;48.73;100703.06;4942711;29;20051;-81
2022/06/26 05:46:46;;;;;;;11.10;3.55;;;;;;;25.95;49.33;100703.41;4940215;29;20054;-82
2022/06/26 05:49:36;;;;;;;9.13;4.47;;;;;;;26.01;48.77;100709.25;4943832;29;20413;-81
2022/06/26 05:52:53;;;;;;;6.88;4.35;;;;;;;26.05;48.59;100720.38;4943556;29;20043;-81
2022/06/26 05:55:43;;;;;;;12.93;4.00;;;;;;;26.16;48.09;100710.63;4943318;29;20531;-81
2022/06/26 05:58:53;;;;;;;7.32;3.63;;;;;;;26.26;47.69;100718.06;4956312;28;20047;-81
2022/06/26 06:01:38;;;;;;;;;;;;;;;26.39;47.19;100726.63;4940956;29;20066;-81
2022/06/26 06:04:29;;;;;;;8.23;3.45;;;;;;;26.36;47.12;100716.34;4950313;29;19915;-82
2022/06/26 06:07:18;;;;;;;8.63;2.65;;;;;;;26.54;47.15;100719.63;4946185;29;20063;-82
2022/06/26 06:10:06;;;;;;;7.03;2.35;;;;;;;26.73;46.62;100732.03;4945151;29;20058;-81
2022/06/26 06:12:52;;;;;;;13.30;3.30;;;;;;;26.76;46.43;100729.22;4933650;29;20047;-81
2022/06/26 06:15:39;;;;;;;5.47;2.17;;;;;;;27.01;45.78;100726.00;4927666;29;20536;-81
2022/06/26 06:18:24;;;;;;;8.88;2.78;;;;;;;27.11;45.37;100719.41;4929803;29;20424;-81
2022/06/26 06:21:09;;;;;;;12.13;2.70;;;;;;;27.37;44.87;100725.31;4943093;29;20046;-82
2022/06/26 06:23:54;;;;;;;5.70;2.75;;;;;;;27.27;44.83;100720.72;4960189;28;20043;-82
2022/06/26 06:26:40;;;;;;;8.95;3.15;;;;;;;27.34;45.10;100735.31;4942153;29;20046;-81
2022/06/26 06:29:34;;;;;;;8.32;2.65;;;;;;;27.25;45.68;100723.94;4938965;29;20059;-81
2022/06/26 06:32:19;;;;;;;7.68;2.72;;;;;;;27.32;45.63;100721.00;4950146;28;20047;-80
2022/06/26 06:35:05;;;;;;;7.40;2.70;;;;;;;27.33;45.74;100721.81;4938813;29;20063;-80
2022/06/26 06:37:53;;;;;;;517.35;111.22;;;;;;;27.08;46.73;100716.69;4937257;29;20066;-80
2022/06/26 06:40:40;;;;;;;107.13;23.20;;;;;;;27.15;46.74;100713.75;4938627;29;20047;-81
2022/06/26 06:43:25;;;;;;;68.75;14.20;;;;;;;26.89;47.06;100714.66;4955547;28;20036;-80
2022/06/26 06:46:29;;;;;;;28.02;5.45;;;;;;;26.84;48.07;100718.69;4935841;29;20475;-80
2022/06/26 06:49:18;;;;;;;47.70;6.72;;;;;;;26.67;48.43;100715.00;4937157;29;20051;-80
2022/06/26 06:52:10;;;;;;;16.60;4.50;;;;;;;26.62;49.30;100718.28;4938754;29;20052;-80
2022/06/26 06:54:55;;;;;;;21.40;4.68;;;;;;;26.91;48.78;100715.81;4940966;29;20175;-81
2022/06/26 06:57:42;;;;;;;17.77;4.60;;;;;;;26.99;48.54;100725.63;4939649;29;20516;-80
2022/06/26 07:00:26;;;;;;;11.30;3.75;;;;;;;27.00;49.07;100732.00;4921193;29;20063;-80
2022/06/26 07:03:11;;;;;;;12.65;3.78;;;;;;;27.05;48.99;100723.13;4949132;28;20051;-80
2022/06/26 07:05:56;;;;;;;14.35;3.10;;;;;;;27.01;49.54;100728.78;4940911;29;20046;-80
2022/06/26 07:08:40;;;;;;;11.82;3.33;;;;;;;26.91;50.23;100717.81;4935381;29;20122;-80
2022/06/26 07:11:25;;;;;;;16.63;3.60;;;;;;;27.04;49.87;100716.75;4921612;29;20055;-80
2022/06/26 07:14:12;;;;;;;28.48;4.18;;;;;;;27.30;50.10;100711.47;4923087;29;20052;-80
2022/06/26 07:16:59;;;;;;;9.77;3.78;;;;;;;26.99;49.82;100716.47;4940186;29;20125;-81
2022/06/26 07:19:44;;;;;;;14.52;3.17;;;;;;;27.20;49.92;100716.84;4938237;29;20425;-78
2022/06/26 07:22:29;;;;;;;12.88;3.25;;;;;;;27.35;50.60;100719.34;4940393;29;20047;-80
2022/06/26 07:25:27;;;;;;;13.32;3.00;;;;;;;27.29;50.13;100721.06;4936252;29;20054;-79
2022/06/26 07:28:17;;;;;;;10.20;3.28;;;;;;;27.21;49.70;100724.00;4936456;29;20046;-82
2022/06/26 07:31:02;;;;;;;8.00;3.15;;;;;;;27.42;49.78;100719.22;4937034;29;20420;-79
2022/06/26 07:36:52;;;;;;;14.73;3.63;;;;;;;27.47;48.96;100727.09;4935566;29;20051;-79
2022/06/26 07:39:37;;;;;;;11.55;3.05;;;;;;;27.91;49.84;100729.34;4926584;29;20050;-79
2022/06/26 07:42:22;;;;;;;9.38;2.83;;;;;;;28.05;49.22;100729.03;4932379;29;20043;-79
2022/06/26 07:45:08;;;;;;;9.15;4.68;;;;;;;27.84;47.11;100735.09;4941013;28;20432;-79
2022/06/26 07:48:07;;;;;;;6.13;3.25;;;;;;;27.93;48.89;100740.91;4938056;29;20059;-79
2022/06/26 07:50:56;;;;;;;28.52;6.05;;;;;;;27.91;49.18;100740.53;4938853;29;20051;-79
2022/06/26 07:53:40;;;;;;;;;;;;;;;28.10;48.27;100730.50;4939840;29;20046;-79
2022/06/26 07:56:25;;;;;;;13.43;4.13;;;;;;;28.30;49.45;100739.66;4929750;29;19923;-79
2022/06/26 07:59:10;;;;;;;6.97;2.33;;;;;;;28.43;50.33;100745.38;4942050;28;20042;-79
2022/06/26 08:01:54;;;;;;;8.27;2.83;;;;;;;28.61;48.10;100742.13;4931133;29;20519;-79
2022/06/26 08:04:39;;;;;;;8.90;3.38;;;;;;;28.77;49.50;100747.72;4934383;29;20527;-79
2022/06/26 08:07:23;;;;;;;14.70;2.65;;;;;;;28.72;49.33;100746.25;4936207;29;20412;-79
2022/06/26 08:10:09;;;;;;;9.25;2.60;;;;;;;29.01;48.39;100746.28;4936765;29;20051;-82
2022/06/26 08:12:55;;;;;;;16.75;3.72;;;;;;;29.04;48.00;100750.25;4928645;29;20524;-79
2022/06/26 08:15:40;;;;;;;8.52;2.72;;;;;;;29.05;48.99;100749.81;4925209;29;20047;-80
2022/06/26 08:18:24;;;;;;;11.40;2.30;;;;;;;29.18;48.37;100747.03;4939138;29;20059;-80
2022/06/26 08:24:13;;;;;;;6.47;2.28;;;;;;;29.25;46.95;100749.66;4939248;29;20065;-79
2022/06/26 08:26:59;;;;;;;27.77;3.28;;;;;;;29.25;46.24;100756.06;4937376;29;20050;-79
2022/06/26 08:29:43;;;;;;;12.25;3.00;;;;;;;29.17;46.16;100762.28;4939010;29;20043;-79
2022/06/26 08:32:27;;;;;;;11.85;3.00;;;;;;;29.17;46.08;100751.84;4937828;29;20528;-79
2022/06/26 08:35:13;;;;;;;10.00;2.97;;;;;;;29.32;45.20;100752.28;4938821;29;20050;-80
2022/06/26 08:37:57;;;;;;;9.95;2.33;;;;;;;29.60;44.07;100745.88;4934675;29;20051;-79
2022/06/26 08:40:43;;;;;;;6.82;2.35;;;;;;;29.60;44.27;100748.69;4935988;29;20520;-79
2022/06/26 08:43:28;;;;;;;7.00;2.28;;;;;;;29.56;44.27;100742.38;4931710;29;20063;-80
2022/06/26 08:46:16;;;;;;;7.60;2.30;;;;;;;29.68;43.79;100738.03;4933063;29;20062;-79
2022/06/26 08:49:05;;;;;;;9.40;2.17;;;;;;;29.81;44.09;100740.88;4935930;29;20121;-79
2022/06/26 08:51:51;;;;;;;10.15;2.08;;;;;;;29.95;42.87;100732.84;4951619;28;20070;-79
2022/06/26 08:54:36;;;;;;;30.83;3.72;;;;;;;30.00;42.96;100737.09;4933436;29;20054;-82
2022/06/26 08:57:22;;;;;;;7.20;3.15;;;;;;;30.02;42.48;100740.25;4935136;29;20113;-79
2022/06/26 09:00:08;;;;;;;10.90;2.17;;;;;;;30.09;42.19;100731.59;4932563;29;20136;-80
2022/06/26 09:02:53;;;;;;;7.72;2.25;;;;;;;29.97;42.75;100733.16;4952662;28;20606;-83
2022/06/26 09:05:37;;;;;;;17.27;4.07;;;;;;;30.02;42.69;100738.22;4937911;29;20059;-80
2022/06/26 09:08:25;;;;;;;69.70;17.48;;;;;;;30.02;42.65;100735.41;4938505;29;20066;-80
2022/06/26 09:11:10;;;;;;;13.02;4.45;;;;;;;30.08;41.84;100741.25;4945225;29;20051;-80
2022/06/26 09:13:59;;;;;;;16.20;2.47;;;;;;;30.11;42.55;100745.97;4931847;29;20051;-79
2022/06/26 09:16:46;;;;;;;62.38;12.80;;;;;;;30.13;42.37;100743.50;4924891;29;20134;-79
2022/06/26 09:19:41;;;;;;;37.15;8.32;;;;;;;30.08;42.60;100742.03;4940010;29;20040;-78
2022/06/26 09:22:27;;;;;;;12.20;2.85;;;;;;;30.25;43.54;100753.16;4939158;29;20050;-78
2022/06/26 09:25:12;;;;;;;12.65;3.70;;;;;;;30.26;43.40;100743.50;4940416;29;20070;-78
2022/06/26 09:28:04;;;;;;;9.07;2.35;;;;;;;30.37;42.72;100749.56;4944957;29;20505;-78
2022/06/26 09:30:59;;;;;;;9.85;2.97;;;;;;;30.40;42.26;100740.22;4945036;29;20416;-77
2022/06/26 09:33:44;;;;;;;6.82;1.80;;;;;;;30.42;41.56;100740.56;4945188;29;20042;-78
2022/06/26 09:36:29;;;;;;;8.00;1.90;;;;;;;30.47;41.19;100740.81;4942475;29;20059;-78
2022/06/26 09:39:14;;;;;;;4.55;1.70;;;;;;;30.58;41.98;100735.63;4942747;29;20067;-78
2022/06/26 09:42:25;;;;;;;4.50;1.75;;;;;;;30.73;41.86;100723.94;4942698;29;20043;-78
2022/06/26 09:45:10;;;;;;;16.40;2.58;;;;;;;30.63;41.86;100725.84;4934253;29;20424;-77
2022/06/26 09:47:55;;;;;;;56.90;14.85;;;;;;;30.69;40.67;100734.47;4944585;29;20071;-78
2022/06/26 09:50:41;;;;;;;45.97;11.52;;;;;;;30.50;40.63;100728.69;4939985;29;20048;-78
2022/06/26 09:53:27;;;;;;;17.92;5.88;;;;;;;30.56;40.85;100729.69;4943720;29;20043;-78
2022/06/26 09:56:12;;;;;;;15.93;4.18;;;;;;;30.75;40.73;100710.19;4939764;29;20055;-78
2022/06/26 09:58:59;;;;;;;35.38;9.05;;;;;;;30.74;40.51;100714.25;4943571;29;20050;-79
2022/06/26 10:08:05;;;;;;;24.58;4.75;;;;;;;31.03;39.66;100717.69;4940914;29;20051;-79
2022/06/26 10:10:50;;;;;;;9.82;2.15;;;;;;;30.95;39.13;100714.28;4944606;29;20066;-78
2022/06/26 10:13:39;;;;;;;8.55;2.88;;;;;;;31.16;37.96;100714.78;4945059;29;20051;-78
2022/06/26 10:16:47;;;;;;;13.10;3.28;;;;;;;31.08;38.53;100702.25;4935508;29;20047;-79
2022/06/26 10:19:58;;;;;;;9.23;1.80;;;;;;;31.35;39.46;100719.31;4960376;28;20058;-77
2022/06/26 10:22:44;;;;;;;9.48;1.98;;;;;;;31.47;38.17;100714.84;4943548;29;20042;-79
2022/06/26 10:25:31;;;;;;;10.30;1.90;;;;;;;31.55;38.01;100714.13;4946006;29;20528;-78
2022/06/26 10:28:19;;;;;;;8.48;1.70;;;;;;;31.79;37.68;100714.47;4942811;29;20046;-78
2022/06/26 10:31:07;;;;;;;8.57;1.75;;;;;;;31.90;38.17;100723.25;4942836;29;20054;-78
2022/06/26 10:33:52;;;;;;;10.65;2.13;;;;;;;31.94;38.28;100714.69;4944157;29;20043;-78
2022/06/26 10:36:37;;;;;;;7.60;1.70;;;;;;;31.96;37.56;100706.53;4946294;29;20042;-79
2022/06/26 10:39:22;;;;;;;8.30;2.50;;;;;;;31.91;37.63;100698.72;4942901;29;20425;-78
2022/06/26 10:45:36;;;;;;;9.35;1.98;;;;;;;31.97;37.02;100697.66;4942291;29;20046;-77
2022/06/26 10:48:24;;;;;;;5.68;1.40;;;;;;;32.01;36.63;100698.28;4943325;29;20046;-77
2022/06/26 10:51:09;;;;;;;4.13;1.52;;;;;;;32.06;35.22;100691.25;4943734;29;20043;-77
2022/06/26 10:53:54;;;;;;;6.90;1.40;;;;;;;32.21;35.36;100697.91;4942747;29;20519;-77
2022/06/26 10:56:39;;;;;;;9.38;2.10;;;;;;;32.16;36.01;100693.69;4977024;23;20255;-86
2022/06/26 10:59:24;;;;;;;18.33;4.53;;;;;;;32.03;35.91;100690.19;4935085;29;20050;-86
2022/06/26 11:02:10;;;;;;;11.85;2.00;;;;;;;32.03;36.08;100684.53;4937698;29;20070;-86
2022/06/26 11:04:55;;;;;;;9.25;2.83;;;;;;;32.07;35.93;100673.13;4920981;29;20059;-86
2022/06/26 11:07:46;;;;;;;7.85;1.77;;;;;;;32.33;34.85;100676.53;4933690;29;20043;-86
2022/06/26 11:10:33;;;;;;;8.93;2.05;;;;;;;32.42;34.11;100682.16;4937813;29;20046;-85
2022/06/26 11:13:18;;;;;;;10.15;2.38;;;;;;;32.44;33.56;100674.06;4937451;29;20050;-86
2022/06/26 11:16:04;;;;;;;18.42;5.40;;;;;;;32.39;34.16;100677.47;4933705;29;20055;-86
2022/06/26 11:18:48;;;;;;;19.15;5.90;;;;;;;32.19;35.18;100667.44;4934670;29;20047;-86
2022/06/26 11:21:33;;;;;;;9.48;2.78;;;;;;;32.21;34.74;100664.91;4935736;29;20047;-87
2022/06/26 11:24:18;;;;;;;8.98;2.65;;;;;;;32.35;33.27;100663.56;4935000;29;20070;-79
2022/06/26 11:27:03;;;;;;;13.48;3.00;;;;;;;32.39;33.73;100657.78;4938216;29;20542;-81
2022/06/26 11:29:48;;;;;;;11.57;1.67;;;;;;;32.50;33.19;100655.28;4928489;29;20067;-83
2022/06/26 11:32:32;;;;;;;8.85;1.58;;;;;;;32.58;32.45;100654.50;4936383;29;20098;-85
2022/06/26 11:35:24;;;;;;;8.55;1.95;;;;;;;32.62;33.00;100645.91;4952793;28;20055;-84
2022/06/26 11:38:14;;;;;;;14.60;2.47;;;;;;;32.63;32.71;100655.91;4934245;29;20054;-81
2022/06/26 11:41:01;;;;;;;14.45;5.38;;;;;;;32.47;34.32;100642.13;4934950;29;20535;-81
2022/06/26 11:43:53;;;;;;;8.50;2.88;;;;;;;32.57;32.76;100643.69;4938476;29;20047;-80
2022/06/26 11:46:37;;;;;;;4.80;1.83;;;;;;;32.66;32.63;100635.31;4936875;29;20058;-80
2022/06/26 11:49:25;;;;;;;5.93;1.90;;;;;;;32.72;33.98;100636.22;4934711;29;20054;-80
2022/06/26 11:52:10;;;;;;;6.18;2.00;;;;;;;32.86;33.19;100641.25;4934121;29;20058;-81
2022/06/26 11:55:00;;;;;;;6.95;1.83;;;;;;;32.98;33.02;100634.66;4923550;29;20523;-80
2022/06/26 11:57:46;;;;;;;8.10;1.70;;;;;;;32.99;32.54;100627.75;4929310;29;20043;-80
2022/06/26 12:00:32;;;;;;;9.68;1.42;;;;;;;32.85;32.92;100619.19;4936091;29;20046;-81
2022/06/26 12:03:18;;;;;;;9.00;2.42;;;;;;;32.93;33.87;100612.75;4935005;29;20063;-81
2022/06/26 12:06:03;;;;;;;10.60;1.48;;;;;;;33.02;33.93;100612.72;4934427;29;20065;-81
2022/06/26 12:08:48;;;;;;;2.90;1.50;;;;;;;33.15;33.02;100606.13;4934734;29;20050;-81
2022/06/26 12:11:42;;;;;;;20.33;1.77;;;;;;;33.24;31.94;100611.75;4934821;29;20058;-82
2022/06/26 12:14:27;;;;;;;7.05;1.92;;;;;;;33.14;32.01;100601.75;4934228;29;20054;-81
2022/06/26 12:17:12;;;;;;;8.50;2.22;;;;;;;33.22;31.90;100605.84;4937139;29;20054;-82
2022/06/26 12:20:08;;;;;;;12.38;2.25;;;;;;;33.25;31.49;100613.34;4934276;29;20515;-82
2022/06/26 12:22:55;;;;;;;6.10;1.65;;;;;;;33.29;31.23;100608.31;4933483;29;20047;-80
2022/06/26 12:25:47;;;;;;;8.05;1.90;;;;;;;33.39;32.08;100607.03;4937400;29;20058;-82
2022/06/26 12:28:32;;;;;;;4.20;1.17;;;;;;;33.39;31.23;100607.03;4935254;29;20051;-82
2022/06/26 12:31:19;;;;;;;9.30;3.28;;;;;;;33.21;32.93;100610.69;4933862;29;20424;-82
2022/06/26 12:34:07;;;;;;;7.80;3.10;;;;;;;32.93;33.86;100609.91;4934291;29;20047;-80
2022/06/26 12:36:52;;;;;;;6.43;1.85;;;;;;;33.09;31.52;100601.13;4935322;29;20057;-82
2022/06/26 12:39:36;;;;;;;8.45;2.15;;;;;;;33.13;31.88;100600.94;4933188;29;20050;-81
2022/06/26 12:42:21;;;;;;;11.63;3.17;;;;;;;33.22;31.50;100594.56;4936937;29;20412;-81
2022/06/26 12:45:07;;;;;;;12.13;2.55;;;;;;;33.24;31.82;100584.34;4935493;29;20046;-80
2022/06/26 12:47:52;;;;;;;8.80;1.80;;;;;;;33.32;31.56;100596.09;4933595;29;20063;-82
2022/06/26 12:50:37;;;;;;;8.25;2.05;;;;;;;33.37;31.59;100592.63;4934027;29;20050;-81
2022/06/26 12:53:22;;;;;;;6.70;2.50;;;;;;;33.09;33.20;100600.34;4949139;28;20432;-81
2022/06/26 12:56:07;;;;;;;8.32;2.70;;;;;;;33.07;32.40;100595.16;4932600;29;20055;-80
2022/06/26 12:58:52;;;;;;;8.60;1.83;;;;;;;32.98;32.51;100600.84;4933002;29;20050;-80
2022/06/26 13:01:37;;;;;;;7.30;2.58;;;;;;;33.00;32.91;100601.16;4938018;28;20553;-80
2022/06/26 13:04:22;;;;;;;8.48;2.90;;;;;;;32.66;34.64;100602.28;4941403;28;20508;-82
2022/06/26 13:07:07;;;;;;;7.65;2.42;;;;;;;32.84;33.34;100597.88;4945521;28;20512;-81
2022/06/26 13:09:51;;;;;;;29.67;3.03;;;;;;;33.06;32.00;100601.31;4914753;29;20063;-81
2022/06/26 13:12:36;;;;;;;8.82;1.77;;;;;;;33.22;31.72;100588.91;4914909;29;20055;-80
2022/06/26 13:15:22;;;;;;;8.38;2.45;;;;;;;33.14;32.05;100594.06;4945768;29;20051;-80
2022/06/26 13:18:07;;;;;;;7.45;3.17;;;;;;;32.88;33.94;100590.84;4921940;29;20047;-80